Time;durP1;ratioP1;P1;durP2;ratioP2;P2;SDS_P1;SDS_P2;PMS_P1;PMS_P2;Temp;Humidity;BMP_temperature;BMP_pressure;BME280_temperature;BME280_humidity;BME280_pressure;Samples;Min_cycle;Max_cycle;Signal;HPM_P1;HPM_P2
2023/03/06 00:01:38;;;;;;;;;;;;;;;3.33;83.98;99963.03;4906445;29;19977;-65
2023/03/06 00:04:41;;;;;;;;;;;;;;;3.36;84.68;99955.19;4918174;29;20447;-64
2023/03/06 00:07:44;;;;;;;;;;;;;;;3.45;84.36;99957.50;4918262;29;20340;-64
2023/03/06 00:10:47;;;;;;;;;;;;;;;3.44;84.44;99950.59;4917786;29;19983;-64
2023/03/06 00:13:51;;;;;;;;;;;;;;;3.42;84.34;99949.84;4918096;29;19927;-64
2023/03/06 00:16:55;;;;;;;;;;;;;;;3.45;84.46;99952.31;4917738;29;20063;-65
2023/03/06 00:19:57;;;;;;;;;;;;;;;3.49;84.47;99940.97;4917878;29;19926;-64
2023/03/06 00:23:01;;;;;;;;;;;;;;;3.50;84.31;99945.25;4917749;29;19926;-65
2023/03/06 00:26:06;;;;;;;;;;;;;;;3.45;84.58;99941.16;4917912;29;19930;-65
2023/03/06 00:29:09;;;;;;;;;;;;;;;3.43;84.63;99930.84;4917670;29;20062;-64
2023/03/06 00:32:14;;;;;;;;;;;;;;;3.50;84.55;99932.31;4906191;29;20230;-64
2023/03/06 00:35:17;;;;;;;;;;;;;;;3.50;84.16;99924.56;4910304;29;20382;-65
2023/03/06 00:38:20;;;;;;;;;;;;;;;3.50;84.11;99923.72;4916743;29;19966;-65
2023/03/06 00:41:23;;;;;;;;;;;;;;;3.46;84.45;99917.81;4911627;29;19947;-66
2023/03/06 00:44:26;;;;;;;;;;;;;;;3.46;84.54;99912.66;4905681;29;19967;-64
2023/03/06 00:47:30;;;;;;;;;;;;;;;3.44;84.28;99914.44;4887789;29;19930;-64
2023/03/06 00:50:35;;;;;;;;;;;;;;;3.41;84.71;99899.00;4917678;29;19969;-64
2023/03/06 00:53:38;;;;;;;;;;;;;;;3.39;84.99;99900.81;4917625;29;20402;-64
2023/03/06 00:56:41;;;;;;;;;;;;;;;3.36;84.83;99888.00;4917212;29;19950;-65
2023/03/06 00:59:44;;;;;;;;;;;;;;;3.36;85.04;99880.25;4916163;29;20422;-64
2023/03/06 01:02:50;;;;;;;;;;;;;;;3.33;85.02;99880.34;4916974;29;19926;-65
2023/03/06 01:05:53;;;;;;;;;;;;;;;3.31;85.54;99883.88;4916988;29;19926;-65
2023/03/06 01:08:56;;;;;;;;;;;;;;;3.28;85.27;99866.72;4917075;29;19926;-65
2023/03/06 01:12:01;;;;;;;;;;;;;;;3.30;85.71;99869.28;4916969;29;19974;-65
2023/03/06 01:15:05;;;;;;;;;;;;;;;3.31;85.52;99869.22;4917072;29;19968;-65
2023/03/06 01:18:08;;;;;;;;;;;;;;;3.30;85.40;99867.53;4917042;29;19930;-65
2023/03/06 01:21:12;;;;;;;;;;;;;;;3.28;85.35;99866.72;4905139;29;19927;-65
2023/03/06 01:24:15;;;;;;;;;;;;;;;3.28;85.32;99864.16;4909305;29;19988;-66
2023/03/06 01:27:19;;;;;;;;;;;;;;;3.29;85.72;99868.44;4916700;29;19967;-66
2023/03/06 01:30:22;;;;;;;;;;;;;;;3.35;85.77;99863.06;4916896;29;19975;-66
2023/03/06 01:33:26;;;;;;;;;;;;;;;3.38;85.70;99868.13;4916865;29;20483;-66
2023/03/06 01:36:29;;;;;;;;;;;;;;;3.40;85.49;99850.81;4916594;29;19978;-66
2023/03/06 01:39:32;;;;;;;;;;;;;;;3.39;85.67;99853.47;4916613;29;19971;-65
2023/03/06 01:42:35;;;;;;;;;;;;;;;3.35;85.93;99847.56;4916892;29;19969;-66
2023/03/06 01:45:38;;;;;;;;;;;;;;;3.33;86.38;99846.75;4915854;29;19929;-66
2023/03/06 01:48:42;;;;;;;;;;;;;;;3.37;86.18;99840.59;4916543;29;20394;-65
2023/03/06 01:51:49;;;;;;;;;;;;;;;3.35;86.96;99837.22;4916709;29;19938;-65
2023/03/06 01:54:54;;;;;;;;;;;;;;;3.33;86.71;99828.69;4904719;29;19934;-65
2023/03/06 01:58:00;;;;;;;;;;;;;;;3.29;86.90;99827.09;4905094;29;19982;-65
2023/03/06 02:01:03;;;;;;;;;;;;;;;3.29;87.01;99821.94;4904947;29;20284;-65
2023/03/06 02:04:07;;;;;;;;;;;;;;;3.29;87.47;99824.50;4916385;29;19926;-66
2023/03/06 02:07:10;;;;;;;;;;;;;;;3.30;87.25;99815.00;4916460;29;19967;-65
2023/03/06 02:10:14;;;;;;;;;;;;;;;3.25;87.22;99807.41;4904775;29;19974;-65
2023/03/06 02:13:17;;;;;;;;;;;;;;;3.20;87.77;99810.16;4915523;29;19926;-65
2023/03/06 02:16:23;;;;;;;;;;;;;;;3.20;87.71;99801.56;4916017;29;19979;-64
2023/03/06 02:19:35;;;;;;;;;;;;;;;3.20;87.84;99801.56;4916267;29;19929;-65
2023/03/06 02:22:56;;;;;;;;;;;;;;;3.08;88.65;99791.63;4916299;29;20023;-65
2023/03/06 02:26:00;;;;;;;;;;;;;;;3.16;88.48;99794.78;4916209;29;19926;-65
2023/03/06 02:29:03;;;;;;;;;;;;;;;3.14;88.17;99791.44;4916175;29;20395;-65
2023/03/06 02:32:07;;;;;;;;;;;;;;;3.11;87.74;99787.22;4904277;29;19926;-65
2023/03/06 02:35:16;;;;;;;;;;;;;;;3.08;87.80;99787.31;4917459;29;19966;-65
2023/03/06 02:38:20;;;;;;;;;;;;;;;3.04;88.74;99790.91;4919630;29;19926;-64
2023/03/06 02:41:25;;;;;;;;;;;;;;;3.06;88.59;99798.56;4908301;29;19925;-64
2023/03/06 02:44:29;;;;;;;;;;;;;;;3.03;88.71;99778.84;4918763;29;20014;-64
2023/03/06 02:47:32;;;;;;;;;;;;;;;3.05;88.67;99777.06;4900605;29;19930;-64
2023/03/06 02:50:35;;;;;;;;;;;;;;;3.07;88.70;99779.63;4899793;29;19942;-64
2023/03/06 02:53:37;;;;;;;;;;;;;;;3.06;88.53;99775.34;4888899;29;20056;-64
2023/03/06 02:56:40;;;;;;;;;;;;;;;3.08;88.43;99776.13;4900387;29;19930;-64
2023/03/06 02:59:44;;;;;;;;;;;;;;;3.09;88.33;99767.47;4900489;29;20443;-64
2023/03/06 03:02:48;;;;;;;;;;;;;;;3.02;88.58;99766.84;4888895;29;19990;-65
2023/03/06 03:05:52;;;;;;;;;;;;;;;3.01;88.56;99768.59;4867967;29;19930;-64
2023/03/06 03:09:00;;;;;;;;;;;;;;;3.01;88.29;99768.59;4899326;29;19942;-64
2023/03/06 03:12:05;;;;;;;;;;;;;;;3.01;88.58;99771.19;4899320;29;19972;-64
2023/03/06 03:15:10;;;;;;;;;;;;;;;2.98;88.57;99771.28;4888594;29;20345;-64
2023/03/06 03:18:14;;;;;;;;;;;;;;;2.95;88.84;99765.38;4888812;29;19942;-64
2023/03/06 03:21:17;;;;;;;;;;;;;;;2.93;89.07;99760.25;4888369;29;19968;-65
2023/03/06 03:24:21;;;;;;;;;;;;;;;2.92;89.10;99755.97;4899170;29;19967;-65
2023/03/06 03:27:24;;;;;;;;;;;;;;;2.97;88.80;99759.28;4888346;29;20472;-65
2023/03/06 03:30:27;;;;;;;;;;;;;;;2.94;89.07;99759.38;4906944;29;19947;-65
2023/03/06 03:33:31;;;;;;;;;;;;;;;2.93;89.04;99752.50;4919066;29;20014;-65
2023/03/06 03:36:35;;;;;;;;;;;;;;;2.99;89.35;99752.28;4917858;29;19930;-64
2023/03/06 03:39:38;;;;;;;;;;;;;;;3.03;88.96;99750.44;4906881;29;19926;-64
2023/03/06 03:42:42;;;;;;;;;;;;;;;3.00;88.72;99748.84;4903438;29;20284;-64
2023/03/06 03:45:47;;;;;;;;;;;;;;;2.99;88.92;99754.03;4903599;29;19930;-64
2023/03/06 03:48:50;;;;;;;;;;;;;;;2.97;88.86;99763.59;4918256;29;19926;-64
2023/03/06 03:51:53;;;;;;;;;;;;;;;2.98;89.11;99754.94;4907022;29;19930;-64
2023/03/06 03:54:58;;;;;;;;;;;;;;;2.96;88.68;99760.13;4906785;29;19971;-64
2023/03/06 03:58:03;;;;;;;;;;;;;;;2.90;88.41;99752.59;4906784;29;20382;-64
2023/03/06 04:01:06;;;;;;;;;;;;;;;2.85;88.63;99746.75;4906320;29;19927;-64
2023/03/06 04:04:10;;;;;;;;;;;;;;;2.79;88.76;99749.53;4906183;29;19929;-65
2023/03/06 04:07:14;;;;;;;;;;;;;;;2.87;88.44;99750.16;4906457;29;19925;-64
2023/03/06 04:10:18;;;;;;;;;;;;;;;2.85;87.66;99743.34;4918073;29;19965;-64
2023/03/06 04:13:21;;;;;;;;;;;;;;;2.79;87.67;99741.78;4918021;29;19995;-64
2023/03/06 04:16:25;;;;;;;;;;;;;;;2.71;88.75;99736.03;4906185;29;19929;-65
2023/03/06 04:19:29;;;;;;;;;;;;;;;2.74;88.25;99734.22;4906180;29;19926;-64
2023/03/06 04:22:32;;;;;;;;;;;;;;;2.62;89.08;99728.59;4906011;29;19941;-64
2023/03/06 04:25:36;;;;;;;;;;;;;;;2.64;88.75;99729.38;4901692;29;19925;-65
2023/03/06 04:28:42;;;;;;;;;;;;;;;2.66;88.47;99728.44;4917932;29;20059;-65
2023/03/06 04:31:45;;;;;;;;;;;;;;;2.67;88.80;99718.97;4902748;29;19994;-64
2023/03/06 04:34:48;;;;;;;;;;;;;;;2.64;88.35;99717.31;4906188;29;20381;-65
2023/03/06 04:37:51;;;;;;;;;;;;;;;2.64;88.69;99719.06;4917599;29;19999;-65
2023/03/06 04:40:56;;;;;;;;;;;;;;;2.64;88.77;99714.72;4906073;29;19926;-64
2023/03/06 04:43:59;;;;;;;;;;;;;;;2.62;88.22;99711.38;4917749;29;19926;-64
2023/03/06 04:47:02;;;;;;;;;;;;;;;2.56;88.65;99707.25;4905470;29;19931;-64
2023/03/06 04:50:05;;;;;;;;;;;;;;;2.58;88.59;99701.19;4917239;29;19975;-65
2023/03/06 04:53:09;;;;;;;;;;;;;;;2.51;89.33;99700.53;4917173;29;19967;-64
2023/03/06 04:56:13;;;;;;;;;;;;;;;2.52;89.44;99700.50;4917097;29;19929;-65
2023/03/06 04:59:16;;;;;;;;;;;;;;;2.51;89.83;99696.22;4916193;29;20386;-64
2023/03/06 05:02:23;;;;;;;;;;;;;;;2.51;89.23;99690.22;4916313;29;19969;-64
2023/03/06 05:05:26;;;;;;;;;;;;;;;2.54;89.37;99698.72;4917323;29;19926;-64
2023/03/06 05:08:30;;;;;;;;;;;;;;;2.51;89.00;99692.81;4917360;29;19974;-64
2023/03/06 05:11:33;;;;;;;;;;;;;;;2.48;88.47;99692.91;4917070;29;19934;-64
2023/03/06 05:14:36;;;;;;;;;;;;;;;2.49;89.22;99690.28;4916814;29;20018;-64
2023/03/06 05:17:39;;;;;;;;;;;;;;;2.52;89.17;99690.19;4903741;29;19970;-66
2023/03/06 05:20:42;;;;;;;;;;;;;;;2.50;89.22;99689.38;4915706;29;19926;-66
2023/03/06 05:23:46;;;;;;;;;;;;;;;2.48;89.04;99693.75;4916192;29;20338;-66
2023/03/06 05:26:49;;;;;;;;;;;;;;;2.46;89.19;99687.81;4916142;29;19942;-64
2023/03/06 05:29:53;;;;;;;;;;;;;;;2.47;89.25;99691.22;4916119;29;20299;-64
2023/03/06 05:32:56;;;;;;;;;;;;;;;2.46;89.32;99689.56;4916681;29;20026;-65
2023/03/06 05:36:00;;;;;;;;;;;;;;;2.42;89.04;99678.47;4916692;29;20295;-65
2023/03/06 05:39:03;;;;;;;;;;;;;;;2.42;89.27;99683.63;4916535;29;19942;-65
2023/03/06 05:42:06;;;;;;;;;;;;;;;2.40;89.71;99682.00;4916447;29;19926;-64
2023/03/06 05:45:10;;;;;;;;;;;;;;;2.41;89.21;99676.78;4916282;29;19926;-65
2023/03/06 05:48:13;;;;;;;;;;;;;;;2.38;89.66;99676.03;4916807;29;19966;-64
2023/03/06 05:51:16;;;;;;;;;;;;;;;2.37;89.38;99675.19;4916862;29;19926;-64
2023/03/06 05:54:20;;;;;;;;;;;;;;;2.37;89.64;99682.94;4916708;29;20017;-64
2023/03/06 05:57:23;;;;;;;;;;;;;;;2.39;89.79;99677.72;4910416;29;19978;-65
2023/03/06 06:00:26;;;;;;;;;;;;;;;2.30;90.04;99677.13;4916565;29;19941;-65
2023/03/06 06:03:29;;;;;;;;;;;;;;;1.59;94.19;99673.28;4916410;29;19942;-65
2023/03/06 06:06:32;;;;;;;;;;;;;;;1.97;93.40;99684.19;4916313;29;19970;-65
2023/03/06 06:09:35;;;;;;;;;;;;;;;2.23;92.15;99674.78;4917637;29;19973;-64
2023/03/06 06:12:39;;;;;;;;;;;;;;;2.33;91.42;99681.38;4920140;29;20455;-64
2023/03/06 06:15:47;;;;;;;;;;;;;;;2.09;92.62;99680.38;4919971;29;20027;-64
2023/03/06 06:19:22;;;;;;;;;;;;;;;2.06;92.37;99685.63;4919475;29;19974;-65
2023/03/06 06:23:01;;;;;;;;;;;;;;;2.35;91.30;99681.31;4920326;29;19986;-65
2023/03/06 06:26:06;;;;;;;;;;;;;;;2.34;90.90;99675.31;4919939;29;19930;-65
2023/03/06 06:29:09;;;;;;;;;;;;;;;2.44;90.53;99687.00;4920115;29;19978;-64
2023/03/06 06:32:13;;;;;;;;;;;;;;;2.44;90.55;99687.00;4919774;29;19926;-65
2023/03/06 06:35:16;;;;;;;;;;;;;;;2.47;89.82;99681.75;4913122;29;19927;-65
2023/03/06 06:38:19;;;;;;;;;;;;;;;2.44;90.07;99681.84;4919965;29;19974;-65
2023/03/06 06:41:22;;;;;;;;;;;;;;;2.56;89.70;99678.88;4919718;29;19930;-66
2023/03/06 06:44:25;;;;;;;;;;;;;;;2.21;91.07;99680.00;4918598;29;20397;-66
2023/03/06 06:47:28;;;;;;;;;;;;;;;2.45;90.60;99677.53;4919661;29;20349;-66
2023/03/06 06:50:31;;;;;;;;;;;;;;;2.49;90.11;99668.78;4919638;29;19925;-66
2023/03/06 06:53:34;;;;;;;;;;;;;;;2.28;90.53;99670.34;4919515;29;20334;-65
2023/03/06 06:56:37;;;;;;;;;;;;;;;2.23;92.31;99667.88;4919299;29;19929;-68
2023/03/06 06:59:41;;;;;;;;;;;;;;;2.27;91.66;99676.41;4919237;29;19975;-73
2023/03/06 07:02:47;;;;;;;;;;;;;;;2.39;92.19;99677.72;4919388;29;19926;-66
2023/03/06 07:05:54;;;;;;;;;;;;;;;2.52;90.69;99677.28;4919606;29;20289;-67
2023/03/06 07:08:57;;;;;;;;;;;;;;;2.35;91.16;99674.41;4919021;29;19975;-66
2023/03/06 07:12:00;;;;;;;;;;;;;;;2.25;92.33;99675.59;4927165;29;19965;-67
2023/03/06 07:15:04;;;;;;;;;;;;;;;2.50;91.17;99688.56;4918959;29;19926;-66
2023/03/06 07:18:07;;;;;;;;;;;;;;;2.49;90.97;99679.09;4936405;29;19930;-67
2023/03/06 07:21:11;;;;;;;;;;;;;;;2.68;90.10;99684.50;4935813;29;19925;-67
2023/03/06 07:24:15;;;;;;;;;;;;;;;2.79;89.68;99677.25;4935566;29;19969;-66
2023/03/06 07:27:18;;;;;;;;;;;;;;;2.59;89.71;99685.66;4935616;29;19925;-67
2023/03/06 07:30:22;;;;;;;;;;;;;;;2.82;89.82;99684.06;4936772;29;19979;-66
2023/03/06 07:33:25;;;;;;;;;;;;;;;2.89;89.71;99681.19;4937612;29;19925;-67
2023/03/06 07:36:28;;;;;;;;;;;;;;;2.99;89.18;99687.72;4937363;29;19930;-73
2023/03/06 07:39:34;;;;;;;;;;;;;;;3.02;89.48;99689.38;4937583;29;19939;-67
2023/03/06 07:42:37;;;;;;;;;;;;;;;3.02;89.42;99684.22;4937142;29;20394;-67
2023/03/06 07:45:54;;;;;;;;;;;;;;;3.08;89.29;99688.31;4925287;29;19974;-67
2023/03/06 07:48:57;;;;;;;;;;;;;;;3.11;89.11;99688.22;4937402;29;19946;-68
2023/03/06 07:52:00;;;;;;;;;;;;;;;3.11;89.09;99691.63;4937819;29;19973;-68
2023/03/06 07:55:04;;;;;;;;;;;;;;;3.16;89.08;99688.88;4937438;29;19978;-67
2023/03/06 07:58:07;;;;;;;;;;;;;;;3.24;89.29;99692.06;4937375;29;19929;-66
2023/03/06 08:01:11;;;;;;;;;;;;;;;3.32;89.31;99697.81;4937458;29;19974;-66
2023/03/06 08:04:14;;;;;;;;;;;;;;;3.36;89.01;99694.19;4937262;29;19926;-68
2023/03/06 08:07:18;;;;;;;;;;;;;;;3.42;89.23;99700.91;4937188;29;20405;-68
2023/03/06 08:10:21;;;;;;;;;;;;;;;3.49;89.70;99704.94;4937320;29;19926;-68
2023/03/06 08:18:24;;;;;;;;;;;;;;;3.71;87.87;99699.81;4896555;29;19999;-70
2023/03/06 08:21:53;;;;;;;;;;;;;;;3.87;85.65;99703.50;4931107;29;20033;-68
2023/03/06 08:24:57;;;;;;;;;;;;;;;3.75;84.01;99701.38;4917291;29;19979;-68
2023/03/06 08:28:36;;;;;;;;;;;;;;;3.16;85.37;99706.97;4917828;29;20031;-68
2023/03/06 08:31:41;;;;;;;;;;;;;;;3.24;85.88;99704.97;4917269;29;20356;-68
2023/03/06 08:34:44;;;;;;;;;;;;;;;2.97;84.46;99702.44;4916419;29;20398;-68
2023/03/06 08:37:47;;;;;;;;;;;;;;;3.10;85.51;99696.88;4916709;29;19937;-66
2023/03/06 08:40:50;;;;;;;;;;;;;;;3.33;84.69;99704.66;4916593;29;19925;-75
2023/03/06 08:43:53;;;;;;;;;;;;;;;3.23;82.97;99703.28;4915455;29;19974;-67
2023/03/06 08:46:58;;;;;;;;;;;;;;;3.64;85.46;99708.72;4899271;29;20218;-68
2023/03/06 08:50:01;;;;;;;;;;;;;;;3.85;85.15;99713.06;4915472;29;19942;-67
2023/03/06 08:53:04;;;;;;;;;;;;;;;3.74;83.40;99715.22;4915990;29;20307;-67
2023/03/06 08:56:07;;;;;;;;;;;;;;;3.62;83.94;99710.50;4915580;29;20283;-67
2023/03/06 08:59:14;;;;;;;;;;;;;;;3.94;82.98;99707.53;4917210;29;19974;-66
2023/03/06 09:02:17;;;;;;;;;;;;;;;4.16;81.86;99709.31;4917502;29;19926;-66
2023/03/06 09:05:20;;;;;;;;;;;;;;;3.85;81.76;99712.22;4917171;29;19998;-66
2023/03/06 09:08:24;;;;;;;;;;;;;;;4.32;81.16;99705.22;4917190;29;19930;-66
2023/03/06 09:11:28;;;;;;;;;;;;;;;4.53;80.17;99715.59;4917096;29;19926;-68
2023/03/06 09:14:31;;;;;;;;;;;;;;;4.53;79.31;99708.72;4916968;29;20018;-67
2023/03/06 09:17:35;;;;;;;;;;;;;;;4.31;78.64;99706.13;4916951;29;19971;-68
2023/03/06 09:20:38;;;;;;;;;;;;;;;4.62;79.06;99710.06;4912989;29;19967;-67
2023/03/06 09:23:41;;;;;;;;;;;;;;;4.68;77.64;99708.97;4916841;29;19967;-67
2023/03/06 09:26:44;;;;;;;;;;;;;;;4.55;77.11;99711.22;4916613;29;19926;-68
2023/03/06 09:29:48;;;;;;;;;;;;;;;4.13;77.48;99709.44;4905016;29;19926;-68
2023/03/06 09:32:52;;;;;;;;;;;;;;;4.37;77.92;99711.06;4904835;29;20288;-68
2023/03/06 09:36:12;;;;;;;;;;;;;;;4.25;76.59;99716.72;4916673;29;19930;-68
2023/03/06 09:39:15;;;;;;;;;;;;;;;3.93;78.63;99718.81;4916688;29;19946;-66
2023/03/06 09:42:43;;;;;;;;;;;;;;;3.91;78.91;99718.00;4926637;29;19925;-67
2023/03/06 09:45:46;;;;;;;;;;;;;;;3.94;78.00;99710.13;4915966;29;19948;-66
2023/03/06 09:48:59;;;;;;;;;;;;;;;3.83;76.03;99720.06;4916457;29;19926;-67
2023/03/06 09:52:11;;;;;;;;;;;;;;;3.93;75.81;99705.88;4916595;29;19930;-66
2023/03/06 09:55:17;;;;;;;;;;;;;;;3.92;73.96;99714.53;4916533;29;19948;-66
2023/03/06 09:58:21;;;;;;;;;;;;;;;3.94;73.62;99717.06;4916391;29;20044;-66
2023/03/06 10:01:33;;;;;;;;;;;;;;;3.90;73.35;99716.34;4916693;29;20447;-68
2023/03/06 10:04:42;;;;;;;;;;;;;;;4.26;73.69;99712.38;4916201;29;20032;-68
2023/03/06 10:07:49;;;;;;;;;;;;;;;4.31;72.68;99705.28;4916497;29;19966;-68
2023/03/06 10:10:56;;;;;;;;;;;;;;;4.06;73.39;99702.81;4916372;29;20005;-67
2023/03/06 10:14:23;;;;;;;;;;;;;;;4.52;72.86;99708.75;4916295;29;19942;-69
2023/03/06 10:17:32;;;;;;;;;;;;;;;4.70;70.84;99705.41;4915924;29;19929;-67
2023/03/06 10:20:39;;;;;;;;;;;;;;;4.48;69.86;99694.25;4916331;29;19926;-68
2023/03/06 10:23:54;;;;;;;;;;;;;;;4.66;70.43;99696.09;4904575;29;19991;-68
2023/03/06 10:27:14;;;;;;;;;;;;;;;4.68;69.42;99694.28;4916232;29;20071;-68
2023/03/06 10:30:40;;;;;;;;;;;;;;;4.57;69.16;99693.88;4915870;29;19926;-68
2023/03/06 10:33:52;;;;;;;;;;;;;;;4.69;70.96;99695.97;4915559;29;19967;-66
2023/03/06 10:36:57;;;;;;;;;;;;;;;4.50;70.08;99689.84;4914472;29;19930;-68
2023/03/06 10:40:10;;;;;;;;;;;;;;;4.61;71.18;99693.69;4916348;29;19944;-67
2023/03/06 10:43:16;;;;;;;;;;;;;;;4.81;70.38;99698.03;4916203;29;19927;-71
2023/03/06 10:46:41;;;;;;;;;;;;;;;4.73;70.14;99694.94;4916316;29;19977;-69
2023/03/06 10:50:12;;;;;;;;;;;;;;;4.98;69.51;99697.34;4916526;29;19983;-68
2023/03/06 10:53:27;;;;;;;;;;;;;;;4.61;70.14;99698.03;4916113;29;20009;-68
2023/03/06 10:56:35;;;;;;;;;;;;;;;4.79;68.97;99697.28;4918692;29;19930;-66
2023/03/06 11:03:39;;;;;;;;;;;;;;;4.94;67.90;99700.13;4919717;29;19987;-67
2023/03/06 11:06:43;;;;;;;;;;;;;;;5.06;69.02;99697.00;4919272;29;19957;-67
2023/03/06 11:10:03;;;;;;;;;;;;;;;4.83;68.42;99691.06;4919441;29;19944;-67
2023/03/06 11:13:27;;;;;;;;;;;;;;;4.84;67.49;99691.88;4918717;29;19926;-67
2023/03/06 11:16:30;;;;;;;;;;;;;;;4.62;67.74;99686.75;4919172;29;19993;-67
2023/03/06 11:19:33;;;;;;;;;;;;;;;5.02;66.36;99680.75;4919040;29;19926;-67
2023/03/06 11:22:38;;;;;;;;;;;;;;;5.15;64.78;99688.00;4919278;29;20377;-67
2023/03/06 11:26:00;;;;;;;;;;;;;;;5.13;66.94;99677.69;4919370;29;19947;-67
2023/03/06 11:29:08;;;;;;;;;;;;;;;5.05;65.99;99679.78;4919158;29;19980;-67
2023/03/06 11:32:15;;;;;;;;;;;;;;;5.32;64.90;99663.00;4917677;29;19977;-67
2023/03/06 11:35:23;;;;;;;;;;;;;;;5.75;64.38;99657.66;4918599;29;19926;-66
2023/03/06 11:38:52;;;;;;;;;;;;;;;5.63;62.02;99648.66;4917857;29;20494;-67
2023/03/06 11:42:01;;;;;;;;;;;;;;;6.15;61.39;99651.44;4905157;29;19941;-66
2023/03/06 11:45:15;;;;;;;;;;;;;;;6.39;60.38;99649.41;4927313;29;20410;-67
2023/03/06 11:48:24;;;;;;;;;;;;;;;6.08;60.04;99638.84;4934377;29;20006;-66
2023/03/06 11:51:39;;;;;;;;;;;;;;;6.07;60.03;99643.19;4926311;29;20392;-67
2023/03/06 11:54:48;;;;;;;;;;;;;;;6.40;59.23;99635.50;4937129;29;19978;-67
2023/03/06 11:58:11;;;;;;;;;;;;;;;6.28;57.64;99641.31;4937524;29;19990;-66
2023/03/06 12:01:20;;;;;;;;;;;;;;;6.05;58.43;99634.63;4937596;29;20333;-67
2023/03/06 12:04:51;;;;;;;;;;;;;;;5.94;57.89;99639.50;4937703;29;20435;-67
2023/03/06 12:08:04;;;;;;;;;;;;;;;5.71;59.06;99636.22;4934082;29;19926;-69
2023/03/06 12:11:07;;;;;;;;;;;;;;;5.73;59.02;99625.75;4937297;29;19943;-66
2023/03/06 12:14:10;;;;;;;;;;;;;;;5.75;58.21;99616.16;4936754;29;19926;-65
2023/03/06 12:17:49;;;;;;;;;;;;;;;6.01;59.57;99617.53;4937003;29;19929;-66
2023/03/06 12:21:04;;;;;;;;;;;;;;;5.72;58.64;99611.94;4913982;29;19930;-68
2023/03/06 12:24:26;;;;;;;;;;;;;;;5.71;58.20;99602.50;4936748;29;19972;-67
2023/03/06 12:27:42;;;;;;;;;;;;;;;6.04;57.95;99597.47;4935418;29;19940;-68
2023/03/06 12:30:54;;;;;;;;;;;;;;;6.02;58.50;99596.69;4935745;29;19967;-66
2023/03/06 12:34:11;;;;;;;;;;;;;;;5.89;57.29;99599.91;4936163;29;20508;-67
2023/03/06 12:37:15;;;;;;;;;;;;;;;6.39;56.11;99594.91;4935844;29;20295;-67
2023/03/06 12:40:37;;;;;;;;;;;;;;;6.90;54.73;99594.94;4936038;29;19925;-66
2023/03/06 12:43:43;;;;;;;;;;;;;;;6.90;54.11;99600.13;4936212;29;19926;-66
2023/03/06 12:46:50;;;;;;;;;;;;;;;7.15;53.20;99592.72;4933148;29;19929;-66
2023/03/06 12:49:56;;;;;;;;;;;;;;;6.83;53.71;99586.63;4936531;29;19926;-66
2023/03/06 12:53:01;;;;;;;;;;;;;;;7.05;53.43;99578.53;4936367;29;20008;-66
2023/03/06 12:56:05;;;;;;;;;;;;;;;7.13;54.27;99575.50;4936133;29;20480;-65
2023/03/06 12:59:28;;;;;;;;;;;;;;;7.22;54.00;99568.06;4936223;29;20010;-66
2023/03/06 13:02:53;;;;;;;;;;;;;;;7.53;53.16;99556.00;4936133;29;19978;-66
2023/03/06 13:06:00;;;;;;;;;;;;;;;7.46;52.91;99565.03;4909205;29;20398;-65
2023/03/06 13:09:24;;;;;;;;;;;;;;;7.69;52.10;99559.44;4916174;29;19926;-66
2023/03/06 13:12:54;;;;;;;;;;;;;;;8.08;51.54;99555.50;4915285;29;19926;-66
2023/03/06 13:17:13;;;;;;;;;;;;;;;9.82;47.71;99551.00;4916251;29;20084;-66
2023/03/06 13:20:25;;;;;;;;;;;;;;;8.06;49.73;99554.72;4916377;29;19977;-67
2023/03/06 13:23:32;;;;;;;;;;;;;;;7.08;52.63;99554.13;4916205;29;19926;-66
2023/03/06 13:26:35;;;;;;;;;;;;;;;9.47;47.50;99556.69;4914959;29;19990;-65
2023/03/06 13:29:38;;;;;;;;;;;;;;;12.63;44.29;99545.19;4894410;29;20014;-70
2023/03/06 13:32:44;;;;;;;;;;;;;;;-144.98;100.00;62585.19;4905017;29;20086;-70
2023/03/06 13:35:52;;;;;;;;;;;;;;;-144.98;100.00;62585.19;4915868;29;19975;-66
2023/03/06 13:38:57;;;;;;;;;;;;;;;-144.98;100.00;62585.19;4916397;29;19970;-67
2023/03/06 13:42:00;;;;;;;;;;;;;;;-144.98;100.00;62585.19;4916388;29;20407;-67
2023/03/06 13:45:12;;;;;;;;;;;;;;;-144.98;100.00;62585.19;4916202;29;20447;-67
2023/03/06 13:48:24;;;;;;;;;;;;;;;-144.98;100.00;62585.19;4931357;29;20450;-68
2023/03/06 13:51:33;;;;;;;;;;;;;;;-144.98;100.00;62585.19;4940959;29;20434;-70
2023/03/06 13:54:57;;;;;;;;;;;;;;;-144.98;100.00;62585.19;4941878;29;20017;-68
2023/03/06 13:58:26;;;;;;;;;;;;;;;-144.98;100.00;62585.19;4942423;29;20299;-68
2023/03/06 14:01:40;;;;;;;;;;;;;;;-144.98;100.00;62585.19;4929402;29;19974;-67
2023/03/06 14:05:09;;;;;;;;;;;;;;;-144.98;100.00;62585.19;4937626;29;19929;-66
2023/03/06 14:08:15;;;;;;;;;;;;;;;-144.98;100.00;62585.19;4940026;29;20517;-65
2023/03/06 14:11:20;;;;;;;;;;;;;;;-144.98;100.00;62585.19;4940301;29;19974;-66
2023/03/06 14:14:43;;;;;;;;;;;;;;;-144.98;100.00;62585.19;4941262;29;20035;-65
2023/03/06 14:17:57;;;;;;;;;;;;;;;-144.98;100.00;62585.19;4941064;29;19985;-66
2023/03/06 14:21:10;;;;;;;;;;;;;;;-144.98;100.00;62585.19;4940221;29;19930;-66
2023/03/06 14:24:36;;;;;;;;;;;;;;;-144.98;100.00;62585.19;4940267;29;19974;-66
2023/03/06 14:27:58;;;;;;;;;;;;;;;-144.98;100.00;62585.19;4925165;29;19926;-67
2023/03/06 14:31:05;;;;;;;;;;;;;;;-144.98;100.00;62585.19;4940780;29;19933;-67
2023/03/06 14:34:24;;;;;;;;;;;;;;;-144.98;100.00;62585.19;4945563;29;20007;-66
2023/03/06 14:37:31;;;;;;;;;;;;;;;-144.98;100.00;62585.19;4945962;29;19951;-67
2023/03/06 14:40:42;;;;;;;;;;;;;;;-144.98;100.00;62585.19;4941707;29;19925;-67
2023/03/06 14:43:55;;;;;;;;;;;;;;;-144.98;100.00;62585.19;4937918;29;19942;-65
2023/03/06 14:47:29;;;;;;;;;;;;;;;-144.98;100.00;62585.19;4942934;29;19929;-66
2023/03/06 14:50:38;;;;;;;;;;;;;;;-144.98;100.00;62585.19;4943259;29;19927;-68
2023/03/06 14:53:46;;;;;;;;;;;;;;;-144.98;100.00;62585.19;4944550;29;19925;-67
2023/03/06 14:56:52;;;;;;;;;;;;;;;-144.98;100.00;62585.19;4946300;29;19929;-67
2023/03/06 14:59:57;;;;;;;;;;;;;;;-144.98;100.00;62585.19;4930978;29;20315;-66
2023/03/06 15:03:03;;;;;;;;;;;;;;;-144.98;100.00;62585.19;4926850;29;19925;-67
2023/03/06 15:06:10;;;;;;;;;;;;;;;-144.98;100.00;62585.19;4944925;29;19930;-67
2023/03/06 15:09:19;;;;;;;;;;;;;;;-144.98;100.00;62585.19;4942413;29;20069;-68
2023/03/06 15:12:22;;;;;;;;;;;;;;;-144.98;100.00;62585.19;4946212;29;20470;-67
2023/03/06 15:15:27;;;;;;;;;;;;;;;-144.98;100.00;62585.19;4939212;29;19974;-65
2023/03/06 15:18:32;;;;;;;;;;;;;;;-144.98;100.00;62585.19;4938054;29;19939;-66
2023/03/06 15:21:37;;;;;;;;;;;;;;;-144.98;100.00;62585.19;4943127;29;19925;-66
2023/03/06 15:24:40;;;;;;;;;;;;;;;-144.98;100.00;62585.19;4943866;29;20388;-66
2023/03/06 15:27:51;;;;;;;;;;;;;;;-144.98;100.00;62585.19;4945769;29;19973;-64
2023/03/06 15:34:44;;;;;;;;;;;;;;;-144.98;100.00;62585.19;4943891;29;20425;-63
2023/03/06 15:38:36;;;;;;;;;;;;;;;-144.98;100.00;62585.19;4944333;29;19951;-63
2023/03/06 15:41:40;;;;;;;;;;;;;;;-144.98;100.00;62585.19;4942827;28;20014;-64
2023/03/06 15:44:55;;;;;;;;;;;;;;;-144.98;100.00;62585.19;4943398;29;20239;-66
2023/03/06 15:47:58;;;;;;;;;;;;;;;-144.98;100.00;62585.19;4947669;29;19969;-66
2023/03/06 15:51:03;;;;;;;;;;;;;;;-144.98;100.00;62585.19;4956058;29;20005;-70
2023/03/06 15:54:07;;;;;;;;;;;;;;;-144.98;100.00;62585.19;4956500;29;19994;-66
2023/03/06 15:57:28;;;;;;;;;;;;;;;-144.98;100.00;62585.19;4944721;29;19949;-66
2023/03/06 16:00:33;;;;;;;;;;;;;;;-144.98;100.00;62585.19;4956577;29;19925;-67
2023/03/06 16:03:37;;;;;;;;;;;;;;;-144.98;100.00;62585.19;4956331;29;20429;-65
2023/03/06 16:06:40;;;;;;;;;;;;;;;-144.98;100.00;62585.19;4956700;29;19974;-66
2023/03/06 16:09:43;;;;;;;;;;;;;;;-144.98;100.00;62585.19;4953094;29;19946;-65
2023/03/06 16:13:01;;;;;;;;;;;;;;;-144.98;100.00;62585.19;4956389;29;19928;-65
2023/03/06 16:16:04;;;;;;;;;;;;;;;-144.98;100.00;62585.19;4956419;29;20406;-65
2023/03/06 16:19:14;;;;;;;;;;;;;;;-144.98;100.00;62585.19;4956220;29;19947;-66
2023/03/06 16:22:17;;;;;;;;;;;;;;;-144.98;100.00;62585.19;4956407;28;19941;-65
2023/03/06 16:25:21;;;;;;;;;;;;;;;-144.98;100.00;62585.19;4956016;29;20010;-65
2023/03/06 16:28:27;;;;;;;;;;;;;;;-144.98;100.00;62585.19;4954481;29;20099;-67
2023/03/06 16:31:31;;;;;;;;;;;;;;;-144.98;100.00;62585.19;4954427;29;20494;-66
2023/03/06 16:34:50;;;;;;;;;;;;;;;-144.98;100.00;62585.19;4954917;29;20322;-66